sensor_id;sensor_type;location;lat;lon;timestamp;temperature;humidity
18794;DHT22;29610;49.022;12.114;2023-02-02T00:01:54;4.70;99.90
18794;DHT22;29610;49.022;12.114;2023-02-02T00:04:26;4.70;99.90
18794;DHT22;29610;49.022;12.114;2023-02-02T00:06:56;4.70;99.90
18794;DHT22;29610;49.022;12.114;2023-02-02T00:09:27;4.70;99.90
18794;DHT22;29610;49.022;12.114;2023-02-02T00:12:00;4.70;99.90
18794;DHT22;29610;49.022;12.114;2023-02-02T00:14:29;4.70;99.90
18794;DHT22;29610;49.022;12.114;2023-02-02T00:16:57;4.70;99.90
18794;DHT22;29610;49.022;12.114;2023-02-02T00:19:27;4.80;99.90
18794;DHT22;29610;49.022;12.114;2023-02-02T00:21:57;4.80;99.70
18794;DHT22;29610;49.022;12.114;2023-02-02T00:24:26;4.80;99.90
18794;DHT22;29610;49.022;12.114;2023-02-02T00:26:56;4.90;99.50
18794;DHT22;29610;49.022;12.114;2023-02-02T00:29:29;4.90;99.50
18794;DHT22;29610;49.022;12.114;2023-02-02T00:31:58;4.90;99.50
18794;DHT22;29610;49.022;12.114;2023-02-02T00:34:27;4.90;99.60
18794;DHT22;29610;49.022;12.114;2023-02-02T00:36:56;5.00;99.60
18794;DHT22;29610;49.022;12.114;2023-02-02T00:39:24;4.90;99.60
18794;DHT22;29610;49.022;12.114;2023-02-02T00:41:54;4.90;99.40
18794;DHT22;29610;49.022;12.114;2023-02-02T00:44:24;5.00;99.50
18794;DHT22;29610;49.022;12.114;2023-02-02T00:47:10;5.00;99.50
18794;DHT22;29610;49.022;12.114;2023-02-02T00:49:39;5.00;99.30
18794;DHT22;29610;49.022;12.114;2023-02-02T00:52:07;5.00;99.60
18794;DHT22;29610;49.022;12.114;2023-02-02T00:54:36;5.00;99.70
18794;DHT22;29610;49.022;12.114;2023-02-02T00:57:05;4.90;99.90
18794;DHT22;29610;49.022;12.114;2023-02-02T00:59:35;4.90;99.70
18794;DHT22;29610;49.022;12.114;2023-02-02T01:02:04;5.00;99.70
18794;DHT22;29610;49.022;12.114;2023-02-02T01:04:33;5.00;99.80
18794;DHT22;29610;49.022;12.114;2023-02-02T01:07:02;5.00;99.90
18794;DHT22;29610;49.022;12.114;2023-02-02T01:09:30;4.90;99.90
18794;DHT22;29610;49.022;12.114;2023-02-02T01:11:59;4.90;99.90
18794;DHT22;29610;49.022;12.114;2023-02-02T01:14:27;4.80;99.90
18794;DHT22;29610;49.022;12.114;2023-02-02T01:16:57;4.70;99.90
18794;DHT22;29610;49.022;12.114;2023-02-02T01:19:26;4.70;99.90
18794;DHT22;29610;49.022;12.114;2023-02-02T01:21:55;4.70;99.90
18794;DHT22;29610;49.022;12.114;2023-02-02T01:24:23;4.60;99.90
18794;DHT22;29610;49.022;12.114;2023-02-02T01:26:52;4.50;99.90
18794;DHT22;29610;49.022;12.114;2023-02-02T01:29:21;4.50;99.90
18794;DHT22;29610;49.022;12.114;2023-02-02T01:31:49;4.40;99.90
18794;DHT22;29610;49.022;12.114;2023-02-02T01:34:21;4.40;99.90
18794;DHT22;29610;49.022;12.114;2023-02-02T01:36:49;4.40;99.90
18794;DHT22;29610;49.022;12.114;2023-02-02T01:39:19;4.20;99.90
18794;DHT22;29610;49.022;12.114;2023-02-02T01:41:47;4.20;99.90
18794;DHT22;29610;49.022;12.114;2023-02-02T01:47:58;4.10;99.90
18794;DHT22;29610;49.022;12.114;2023-02-02T01:50:31;4.00;99.90
18794;DHT22;29610;49.022;12.114;2023-02-02T01:53:03;3.40;99.90
18794;DHT22;29610;49.022;12.114;2023-02-02T01:55:37;3.00;99.90
18794;DHT22;29610;49.022;12.114;2023-02-02T01:58:11;2.60;99.90
18794;DHT22;29610;49.022;12.114;2023-02-02T02:00:45;2.20;99.90
18794;DHT22;29610;49.022;12.114;2023-02-02T02:03:17;1.90;99.90
18794;DHT22;29610;49.022;12.114;2023-02-02T02:05:55;1.70;99.90
18794;DHT22;29610;49.022;12.114;2023-02-02T02:08:30;1.60;99.90
18794;DHT22;29610;49.022;12.114;2023-02-02T02:11:02;1.50;99.90
18794;DHT22;29610;49.022;12.114;2023-02-02T02:13:33;1.40;99.90
18794;DHT22;29610;49.022;12.114;2023-02-02T02:16:28;1.20;99.90
18794;DHT22;29610;49.022;12.114;2023-02-02T02:19:13;1.10;99.90
18794;DHT22;29610;49.022;12.114;2023-02-02T02:22:01;1.00;99.90
18794;DHT22;29610;49.022;12.114;2023-02-02T02:25:24;1.00;99.90
18794;DHT22;29610;49.022;12.114;2023-02-02T02:28:58;0.90;99.90
18794;DHT22;29610;49.022;12.114;2023-02-02T02:31:59;0.80;99.90
18794;DHT22;29610;49.022;12.114;2023-02-02T02:34:43;0.80;99.90
18794;DHT22;29610;49.022;12.114;2023-02-02T02:37:28;0.80;99.90
18794;DHT22;29610;49.022;12.114;2023-02-02T02:40:05;1.00;99.90
18794;DHT22;29610;49.022;12.114;2023-02-02T02:42:47;0.80;99.90
18794;DHT22;29610;49.022;12.114;2023-02-02T02:45:22;0.90;99.90
18794;DHT22;29610;49.022;12.114;2023-02-02T02:47:56;0.90;99.90
18794;DHT22;29610;49.022;12.114;2023-02-02T02:50:26;0.80;99.90
18794;DHT22;29610;49.022;12.114;2023-02-02T02:53:02;0.80;99.90
18794;DHT22;29610;49.022;12.114;2023-02-02T02:55:39;0.80;99.90
18794;DHT22;29610;49.022;12.114;2023-02-02T02:58:18;0.80;99.90
18794;DHT22;29610;49.022;12.114;2023-02-02T03:01:01;0.70;99.90
18794;DHT22;29610;49.022;12.114;2023-02-02T03:03:49;0.80;99.90
18794;DHT22;29610;49.022;12.114;2023-02-02T03:06:29;0.70;99.90
18794;DHT22;29610;49.022;12.114;2023-02-02T03:09:09;0.80;99.90
18794;DHT22;29610;49.022;12.114;2023-02-02T03:11:40;0.80;99.90
18794;DHT22;29610;49.022;12.114;2023-02-02T03:14:09;0.80;99.90
18794;DHT22;29610;49.022;12.114;2023-02-02T03:16:38;0.80;99.90
18794;DHT22;29610;49.022;12.114;2023-02-02T03:19:08;0.80;99.90
18794;DHT22;29610;49.022;12.114;2023-02-02T03:21:37;0.90;99.90
18794;DHT22;29610;49.022;12.114;2023-02-02T03:24:06;1.20;99.90
18794;DHT22;29610;49.022;12.114;2023-02-02T03:26:35;0.90;99.90
18794;DHT22;29610;49.022;12.114;2023-02-02T03:29:05;0.80;99.90
18794;DHT22;29610;49.022;12.114;2023-02-02T03:31:33;0.80;99.90
18794;DHT22;29610;49.022;12.114;2023-02-02T03:34:02;0.90;99.90
18794;DHT22;29610;49.022;12.114;2023-02-02T03:36:32;0.80;99.90
18794;DHT22;29610;49.022;12.114;2023-02-02T03:39:01;0.80;99.90
18794;DHT22;29610;49.022;12.114;2023-02-02T03:41:30;0.90;99.90
18794;DHT22;29610;49.022;12.114;2023-02-02T03:43:58;0.90;99.90
18794;DHT22;29610;49.022;12.114;2023-02-02T03:46:27;1.00;99.90
18794;DHT22;29610;49.022;12.114;2023-02-02T03:48:55;0.90;99.90
18794;DHT22;29610;49.022;12.114;2023-02-02T03:51:27;0.80;99.90
18794;DHT22;29610;49.022;12.114;2023-02-02T03:53:57;1.40;99.90
18794;DHT22;29610;49.022;12.114;2023-02-02T03:56:25;1.20;99.90
18794;DHT22;29610;49.022;12.114;2023-02-02T03:58:54;0.80;99.90
18794;DHT22;29610;49.022;12.114;2023-02-02T04:01:26;0.80;99.90
18794;DHT22;29610;49.022;12.114;2023-02-02T04:03:57;0.80;99.90
18794;DHT22;29610;49.022;12.114;2023-02-02T04:06:26;0.90;99.90
18794;DHT22;29610;49.022;12.114;2023-02-02T04:08:56;0.90;99.90
18794;DHT22;29610;49.022;12.114;2023-02-02T04:11:25;0.90;99.90
18794;DHT22;29610;49.022;12.114;2023-02-02T04:13:53;0.80;99.90
18794;DHT22;29610;49.022;12.114;2023-02-02T04:16:22;1.00;99.90
18794;DHT22;29610;49.022;12.114;2023-02-02T04:18:51;0.80;99.90
18794;DHT22;29610;49.022;12.114;2023-02-02T04:21:19;1.00;99.90
18794;DHT22;29610;49.022;12.114;2023-02-02T04:23:48;0.80;99.90
18794;DHT22;29610;49.022;12.114;2023-02-02T04:26:18;1.00;99.90
18794;DHT22;29610;49.022;12.114;2023-02-02T04:28:46;0.80;99.90
18794;DHT22;29610;49.022;12.114;2023-02-02T04:31:15;0.90;99.90
18794;DHT22;29610;49.022;12.114;2023-02-02T04:33:44;0.90;99.90
18794;DHT22;29610;49.022;12.114;2023-02-02T04:36:12;0.90;99.90
18794;DHT22;29610;49.022;12.114;2023-02-02T04:38:41;0.90;99.90
18794;DHT22;29610;49.022;12.114;2023-02-02T04:41:11;0.90;99.90
18794;DHT22;29610;49.022;12.114;2023-02-02T04:43:42;0.90;99.90
18794;DHT22;29610;49.022;12.114;2023-02-02T04:46:10;0.90;99.90
18794;DHT22;29610;49.022;12.114;2023-02-02T04:48:40;0.90;99.90
18794;DHT22;29610;49.022;12.114;2023-02-02T04:51:11;0.90;99.90
18794;DHT22;29610;49.022;12.114;2023-02-02T04:53:41;0.90;99.90
18794;DHT22;29610;49.022;12.114;2023-02-02T04:56:12;0.90;99.90
18794;DHT22;29610;49.022;12.114;2023-02-02T04:58:44;0.90;99.90
18794;DHT22;29610;49.022;12.114;2023-02-02T05:01:15;1.00;99.90
18794;DHT22;29610;49.022;12.114;2023-02-02T05:03:46;0.90;99.90
18794;DHT22;29610;49.022;12.114;2023-02-02T05:06:16;0.90;99.90
18794;DHT22;29610;49.022;12.114;2023-02-02T05:08:46;0.90;99.90
18794;DHT22;29610;49.022;12.114;2023-02-02T05:11:17;0.90;99.90
18794;DHT22;29610;49.022;12.114;2023-02-02T05:13:50;0.90;99.90
18794;DHT22;29610;49.022;12.114;2023-02-02T05:16:22;0.90;99.90
18794;DHT22;29610;49.022;12.114;2023-02-02T05:18:56;0.90;99.90
18794;DHT22;29610;49.022;12.114;2023-02-02T05:21:25;0.80;99.90
18794;DHT22;29610;49.022;12.114;2023-02-02T05:23:54;0.80;99.90
18794;DHT22;29610;49.022;12.114;2023-02-02T05:26:25;0.80;99.90
18794;DHT22;29610;49.022;12.114;2023-02-02T05:28:55;0.90;99.90
18794;DHT22;29610;49.022;12.114;2023-02-02T05:31:24;0.80;99.90
18794;DHT22;29610;49.022;12.114;2023-02-02T05:33:53;0.80;99.90
18794;DHT22;29610;49.022;12.114;2023-02-02T05:36:21;0.80;99.90
18794;DHT22;29610;49.022;12.114;2023-02-02T05:38:50;0.90;99.90
18794;DHT22;29610;49.022;12.114;2023-02-02T05:41:19;0.90;99.90
18794;DHT22;29610;49.022;12.114;2023-02-02T05:43:47;0.90;99.90
18794;DHT22;29610;49.022;12.114;2023-02-02T05:46:17;0.80;99.90
18794;DHT22;29610;49.022;12.114;2023-02-02T05:48:46;0.80;99.90
18794;DHT22;29610;49.022;12.114;2023-02-02T05:51:18;0.80;99.90
18794;DHT22;29610;49.022;12.114;2023-02-02T05:53:49;0.90;99.90
18794;DHT22;29610;49.022;12.114;2023-02-02T05:56:18;0.90;99.90
18794;DHT22;29610;49.022;12.114;2023-02-02T05:58:46;0.90;99.90
18794;DHT22;29610;49.022;12.114;2023-02-02T06:01:17;1.70;99.90
18794;DHT22;29610;49.022;12.114;2023-02-02T06:03:47;0.90;99.90
18794;DHT22;29610;49.022;12.114;2023-02-02T06:06:16;0.90;99.90
18794;DHT22;29610;49.022;12.114;2023-02-02T06:08:44;0.90;99.90
18794;DHT22;29610;49.022;12.114;2023-02-02T06:11:15;0.90;99.90
18794;DHT22;29610;49.022;12.114;2023-02-02T06:13:45;0.90;99.90
18794;DHT22;29610;49.022;12.114;2023-02-02T06:16:13;0.90;99.90
18794;DHT22;29610;49.022;12.114;2023-02-02T06:18:43;1.20;99.90
18794;DHT22;29610;49.022;12.114;2023-02-02T06:21:13;0.90;99.90
18794;DHT22;29610;49.022;12.114;2023-02-02T06:23:41;0.90;99.90
18794;DHT22;29610;49.022;12.114;2023-02-02T06:26:11;1.40;99.90
18794;DHT22;29610;49.022;12.114;2023-02-02T06:28:41;0.80;99.90
18794;DHT22;29610;49.022;12.114;2023-02-02T06:31:10;0.90;99.90
18794;DHT22;29610;49.022;12.114;2023-02-02T06:33:39;0.80;99.90
18794;DHT22;29610;49.022;12.114;2023-02-02T06:36:09;0.80;99.90
18794;DHT22;29610;49.022;12.114;2023-02-02T06:38:38;0.80;99.90
18794;DHT22;29610;49.022;12.114;2023-02-02T06:41:07;0.80;99.90
18794;DHT22;29610;49.022;12.114;2023-02-02T06:43:35;0.80;99.90
18794;DHT22;29610;49.022;12.114;2023-02-02T06:46:04;1.20;99.90
18794;DHT22;29610;49.022;12.114;2023-02-02T06:48:32;0.80;99.90
18794;DHT22;29610;49.022;12.114;2023-02-02T06:51:01;1.10;99.90
18794;DHT22;29610;49.022;12.114;2023-02-02T06:53:33;0.80;99.90
18794;DHT22;29610;49.022;12.114;2023-02-02T06:56:04;0.80;99.90
18794;DHT22;29610;49.022;12.114;2023-02-02T06:58:34;0.80;99.90
18794;DHT22;29610;49.022;12.114;2023-02-02T07:01:04;0.80;99.90
18794;DHT22;29610;49.022;12.114;2023-02-02T07:03:35;0.80;99.90
18794;DHT22;29610;49.022;12.114;2023-02-02T07:06:12;0.80;99.90
18794;DHT22;29610;49.022;12.114;2023-02-02T07:08:45;0.80;99.90
18794;DHT22;29610;49.022;12.114;2023-02-02T07:11:29;0.80;99.90
18794;DHT22;29610;49.022;12.114;2023-02-02T07:14:03;0.90;99.90
18794;DHT22;29610;49.022;12.114;2023-02-02T07:16:32;1.00;99.90
18794;DHT22;29610;49.022;12.114;2023-02-02T07:19:01;0.90;99.90
18794;DHT22;29610;49.022;12.114;2023-02-02T07:21:30;0.90;99.90
18794;DHT22;29610;49.022;12.114;2023-02-02T07:24:05;0.90;99.90
18794;DHT22;29610;49.022;12.114;2023-02-02T07:26:35;1.00;99.90
18794;DHT22;29610;49.022;12.114;2023-02-02T07:29:04;1.00;99.90
18794;DHT22;29610;49.022;12.114;2023-02-02T07:31:33;1.00;99.90
18794;DHT22;29610;49.022;12.114;2023-02-02T07:34:03;1.10;99.90
18794;DHT22;29610;49.022;12.114;2023-02-02T07:36:31;1.00;99.90
18794;DHT22;29610;49.022;12.114;2023-02-02T07:39:01;1.10;99.90
18794;DHT22;29610;49.022;12.114;2023-02-02T07:41:34;1.10;99.90
18794;DHT22;29610;49.022;12.114;2023-02-02T07:44:12;1.10;99.90
18794;DHT22;29610;49.022;12.114;2023-02-02T07:46:43;1.80;99.90
18794;DHT22;29610;49.022;12.114;2023-02-02T07:49:13;1.20;99.90
18794;DHT22;29610;49.022;12.114;2023-02-02T07:51:43;1.90;99.90
18794;DHT22;29610;49.022;12.114;2023-02-02T07:54:15;1.50;99.90
18794;DHT22;29610;49.022;12.114;2023-02-02T07:56:45;1.20;99.90
18794;DHT22;29610;49.022;12.114;2023-02-02T07:59:15;1.50;99.90
18794;DHT22;29610;49.022;12.114;2023-02-02T08:01:44;1.20;99.90
18794;DHT22;29610;49.022;12.114;2023-02-02T08:04:13;1.70;99.90
18794;DHT22;29610;49.022;12.114;2023-02-02T08:06:41;1.30;99.90
18794;DHT22;29610;49.022;12.114;2023-02-02T08:09:10;1.30;99.90
18794;DHT22;29610;49.022;12.114;2023-02-02T08:11:39;0.30;99.90
18794;DHT22;29610;49.022;12.114;2023-02-02T08:14:11;1.40;99.90
18794;DHT22;29610;49.022;12.114;2023-02-02T08:16:41;1.40;99.90
18794;DHT22;29610;49.022;12.114;2023-02-02T08:19:10;1.40;99.90
18794;DHT22;29610;49.022;12.114;2023-02-02T08:21:39;1.40;99.90
18794;DHT22;29610;49.022;12.114;2023-02-02T08:24:08;1.70;99.90
18794;DHT22;29610;49.022;12.114;2023-02-02T08:26:37;2.10;99.90
18794;DHT22;29610;49.022;12.114;2023-02-02T08:29:09;1.50;99.90
18794;DHT22;29610;49.022;12.114;2023-02-02T08:31:44;1.50;99.90
18794;DHT22;29610;49.022;12.114;2023-02-02T08:34:13;1.50;99.90
18794;DHT22;29610;49.022;12.114;2023-02-02T08:36:41;1.50;99.90
18794;DHT22;29610;49.022;12.114;2023-02-02T08:39:11;1.50;99.90
18794;DHT22;29610;49.022;12.114;2023-02-02T08:41:40;1.60;99.90
18794;DHT22;29610;49.022;12.114;2023-02-02T08:44:13;1.60;99.90
18794;DHT22;29610;49.022;12.114;2023-02-02T08:46:42;1.70;99.90
18794;DHT22;29610;49.022;12.114;2023-02-02T08:49:12;1.60;99.90
18794;DHT22;29610;49.022;12.114;2023-02-02T08:51:41;2.80;99.90
18794;DHT22;29610;49.022;12.114;2023-02-02T08:54:09;1.70;99.90
18794;DHT22;29610;49.022;12.114;2023-02-02T08:56:38;1.80;99.90
18794;DHT22;29610;49.022;12.114;2023-02-02T08:59:07;1.90;99.90
18794;DHT22;29610;49.022;12.114;2023-02-02T09:01:37;2.00;99.90
18794;DHT22;29610;49.022;12.114;2023-02-02T09:04:07;1.90;99.90
18794;DHT22;29610;49.022;12.114;2023-02-02T09:06:42;1.90;99.90
18794;DHT22;29610;49.022;12.114;2023-02-02T09:09:13;1.90;99.90
18794;DHT22;29610;49.022;12.114;2023-02-02T09:11:43;3.50;99.90
18794;DHT22;29610;49.022;12.114;2023-02-02T09:14:13;2.00;99.90
18794;DHT22;29610;49.022;12.114;2023-02-02T09:16:43;2.60;99.90
18794;DHT22;29610;49.022;12.114;2023-02-02T09:19:12;2.00;99.90
18794;DHT22;29610;49.022;12.114;2023-02-02T09:21:41;2.00;99.90
18794;DHT22;29610;49.022;12.114;2023-02-02T09:24:11;2.10;99.90
18794;DHT22;29610;49.022;12.114;2023-02-02T09:26:41;2.20;99.90
18794;DHT22;29610;49.022;12.114;2023-02-02T09:29:13;2.10;99.90
18794;DHT22;29610;49.022;12.114;2023-02-02T09:31:45;2.10;99.90
18794;DHT22;29610;49.022;12.114;2023-02-02T09:34:14;3.10;99.90
18794;DHT22;29610;49.022;12.114;2023-02-02T09:36:43;2.30;99.90
18794;DHT22;29610;49.022;12.114;2023-02-02T09:39:12;3.40;99.90
18794;DHT22;29610;49.022;12.114;2023-02-02T09:41:56;2.30;99.90
18794;DHT22;29610;49.022;12.114;2023-02-02T09:45:06;2.60;99.90
18794;DHT22;29610;49.022;12.114;2023-02-02T09:47:56;2.30;99.90
18794;DHT22;29610;49.022;12.114;2023-02-02T09:50:44;2.30;99.90
18794;DHT22;29610;49.022;12.114;2023-02-02T09:53:25;2.20;99.90
18794;DHT22;29610;49.022;12.114;2023-02-02T09:56:24;2.10;99.90
18794;DHT22;29610;49.022;12.114;2023-02-02T09:58:56;2.20;99.90
18794;DHT22;29610;49.022;12.114;2023-02-02T10:01:46;2.20;99.90
18794;DHT22;29610;49.022;12.114;2023-02-02T10:04:24;3.10;99.90
18794;DHT22;29610;49.022;12.114;2023-02-02T10:07:05;2.30;99.90
18794;DHT22;29610;49.022;12.114;2023-02-02T10:09:40;2.30;99.90
18794;DHT22;29610;49.022;12.114;2023-02-02T10:12:21;2.50;99.90
18794;DHT22;29610;49.022;12.114;2023-02-02T10:14:59;2.80;99.90
18794;DHT22;29610;49.022;12.114;2023-02-02T10:17:43;2.50;99.90
18794;DHT22;29610;49.022;12.114;2023-02-02T10:20:32;2.90;99.90
18794;DHT22;29610;49.022;12.114;2023-02-02T10:23:14;2.60;99.90
18794;DHT22;29610;49.022;12.114;2023-02-02T10:25:55;2.60;99.90
18794;DHT22;29610;49.022;12.114;2023-02-02T10:28:40;2.70;99.90
18794;DHT22;29610;49.022;12.114;2023-02-02T10:31:17;2.60;99.90
18794;DHT22;29610;49.022;12.114;2023-02-02T10:34:06;2.90;99.90
18794;DHT22;29610;49.022;12.114;2023-02-02T10:36:55;3.40;99.90
18794;DHT22;29610;49.022;12.114;2023-02-02T10:39:39;2.70;99.90
18794;DHT22;29610;49.022;12.114;2023-02-02T10:42:23;2.70;99.90
18794;DHT22;29610;49.022;12.114;2023-02-02T10:45:03;2.60;99.90
18794;DHT22;29610;49.022;12.114;2023-02-02T10:47:41;2.50;99.90
18794;DHT22;29610;49.022;12.114;2023-02-02T10:50:16;2.40;99.90
18794;DHT22;29610;49.022;12.114;2023-02-02T10:52:51;2.70;99.90
18794;DHT22;29610;49.022;12.114;2023-02-02T10:55:30;2.50;99.90
18794;DHT22;29610;49.022;12.114;2023-02-02T10:58:11;2.50;99.90
18794;DHT22;29610;49.022;12.114;2023-02-02T11:00:51;3.10;99.90
18794;DHT22;29610;49.022;12.114;2023-02-02T11:03:23;2.80;99.90
18794;DHT22;29610;49.022;12.114;2023-02-02T11:05:56;2.40;99.90
18794;DHT22;29610;49.022;12.114;2023-02-02T11:08:48;2.40;99.90
18794;DHT22;29610;49.022;12.114;2023-02-02T11:11:25;2.50;99.90
18794;DHT22;29610;49.022;12.114;2023-02-02T11:13:59;2.40;99.90
18794;DHT22;29610;49.022;12.114;2023-02-02T11:16:31;2.40;99.90
18794;DHT22;29610;49.022;12.114;2023-02-02T11:19:25;2.40;99.90
18794;DHT22;29610;49.022;12.114;2023-02-02T11:21:57;2.40;99.90
18794;DHT22;29610;49.022;12.114;2023-02-02T11:24:31;2.30;99.90
18794;DHT22;29610;49.022;12.114;2023-02-02T11:27:13;2.50;99.90
18794;DHT22;29610;49.022;12.114;2023-02-02T11:29:47;2.30;99.90
18794;DHT22;29610;49.022;12.114;2023-02-02T11:32:19;2.40;99.90
18794;DHT22;29610;49.022;12.114;2023-02-02T11:35:17;2.40;99.90
18794;DHT22;29610;49.022;12.114;2023-02-02T11:37:59;2.40;99.90
18794;DHT22;29610;49.022;12.114;2023-02-02T11:40:39;2.30;99.90
18794;DHT22;29610;49.022;12.114;2023-02-02T11:43:17;2.40;99.90
18794;DHT22;29610;49.022;12.114;2023-02-02T11:45:53;2.30;99.90
18794;DHT22;29610;49.022;12.114;2023-02-02T11:48:27;2.40;99.90
18794;DHT22;29610;49.022;12.114;2023-02-02T11:51:00;2.30;99.90
18794;DHT22;29610;49.022;12.114;2023-02-02T11:53:31;2.40;99.90
18794;DHT22;29610;49.022;12.114;2023-02-02T11:56:05;2.30;99.90
18794;DHT22;29610;49.022;12.114;2023-02-02T11:58:45;2.30;99.90
18794;DHT22;29610;49.022;12.114;2023-02-02T12:01:23;2.20;99.90
18794;DHT22;29610;49.022;12.114;2023-02-02T12:03:54;2.20;99.90
18794;DHT22;29610;49.022;12.114;2023-02-02T12:06:26;1.80;99.90
18794;DHT22;29610;49.022;12.114;2023-02-02T12:09:10;2.20;99.90
18794;DHT22;29610;49.022;12.114;2023-02-02T12:11:50;2.20;99.90
18794;DHT22;29610;49.022;12.114;2023-02-02T12:14:33;2.30;99.90
18794;DHT22;29610;49.022;12.114;2023-02-02T12:17:23;2.40;99.90
18794;DHT22;29610;49.022;12.114;2023-02-02T12:20:21;2.40;99.90
18794;DHT22;29610;49.022;12.114;2023-02-02T12:23:05;2.40;99.90
18794;DHT22;29610;49.022;12.114;2023-02-02T12:25:57;2.30;99.90
18794;DHT22;29610;49.022;12.114;2023-02-02T12:28:54;2.30;99.90
18794;DHT22;29610;49.022;12.114;2023-02-02T12:31:45;2.30;99.90
18794;DHT22;29610;49.022;12.114;2023-02-02T12:34:30;2.40;99.90
18794;DHT22;29610;49.022;12.114;2023-02-02T12:37:14;2.30;99.90
18794;DHT22;29610;49.022;12.114;2023-02-02T12:40:01;2.70;99.90
18794;DHT22;29610;49.022;12.114;2023-02-02T12:42:58;2.50;99.90
18794;DHT22;29610;49.022;12.114;2023-02-02T12:49:04;2.40;99.90
18794;DHT22;29610;49.022;12.114;2023-02-02T12:52:07;2.30;99.90
18794;DHT22;29610;49.022;12.114;2023-02-02T12:54:54;2.30;99.90
18794;DHT22;29610;49.022;12.114;2023-02-02T12:57:39;2.40;99.90
18794;DHT22;29610;49.022;12.114;2023-02-02T13:00:43;2.30;99.90
18794;DHT22;29610;49.022;12.114;2023-02-02T13:03:47;2.20;99.90
18794;DHT22;29610;49.022;12.114;2023-02-02T13:06:50;2.30;99.90
18794;DHT22;29610;49.022;12.114;2023-02-02T13:09:37;2.20;99.90
18794;DHT22;29610;49.022;12.114;2023-02-02T13:12:11;2.10;99.90
18794;DHT22;29610;49.022;12.114;2023-02-02T13:14:45;2.10;99.90
18794;DHT22;29610;49.022;12.114;2023-02-02T13:17:24;2.10;99.90
18794;DHT22;29610;49.022;12.114;2023-02-02T13:19:59;2.00;99.90
18794;DHT22;29610;49.022;12.114;2023-02-02T13:22:35;2.10;99.90
18794;DHT22;29610;49.022;12.114;2023-02-02T13:25:13;2.10;99.90
18794;DHT22;29610;49.022;12.114;2023-02-02T13:27:47;2.10;99.90
18794;DHT22;29610;49.022;12.114;2023-02-02T13:30:26;2.10;99.90
18794;DHT22;29610;49.022;12.114;2023-02-02T13:33:02;2.00;99.90
18794;DHT22;29610;49.022;12.114;2023-02-02T13:35:44;2.00;99.90
18794;DHT22;29610;49.022;12.114;2023-02-02T13:38:22;2.00;99.90
18794;DHT22;29610;49.022;12.114;2023-02-02T13:40:54;1.90;99.90
18794;DHT22;29610;49.022;12.114;2023-02-02T13:43:30;1.80;99.90
18794;DHT22;29610;49.022;12.114;2023-02-02T13:46:20;1.80;99.90
18794;DHT22;29610;49.022;12.114;2023-02-02T13:49:01;1.80;99.90
18794;DHT22;29610;49.022;12.114;2023-02-02T13:51:45;1.80;99.90
18794;DHT22;29610;49.022;12.114;2023-02-02T14:01:06;1.60;99.90
18794;DHT22;29610;49.022;12.114;2023-02-02T14:03:39;1.50;99.90
18794;DHT22;29610;49.022;12.114;2023-02-02T14:06:13;1.40;99.90
18794;DHT22;29610;49.022;12.114;2023-02-02T14:08:46;1.40;99.90
18794;DHT22;29610;49.022;12.114;2023-02-02T14:11:26;1.40;99.90
18794;DHT22;29610;49.022;12.114;2023-02-02T14:14:04;1.40;99.90
18794;DHT22;29610;49.022;12.114;2023-02-02T14:16:55;1.40;99.90
18794;DHT22;29610;49.022;12.114;2023-02-02T14:19:47;1.20;99.90
18794;DHT22;29610;49.022;12.114;2023-02-02T14:22:44;1.10;99.90
18794;DHT22;29610;49.022;12.114;2023-02-02T14:28:46;1.10;99.90
18794;DHT22;29610;49.022;12.114;2023-02-02T14:31:42;1.10;99.90
18794;DHT22;29610;49.022;12.114;2023-02-02T14:34:26;1.10;99.90
18794;DHT22;29610;49.022;12.114;2023-02-02T14:37:26;1.00;99.90
18794;DHT22;29610;49.022;12.114;2023-02-02T14:40:23;1.00;99.90
18794;DHT22;29610;49.022;12.114;2023-02-02T14:43:09;1.00;99.90
18794;DHT22;29610;49.022;12.114;2023-02-02T14:46:22;1.60;99.90
18794;DHT22;29610;49.022;12.114;2023-02-02T14:49:11;1.00;99.90
18794;DHT22;29610;49.022;12.114;2023-02-02T14:51:48;1.00;99.90
18794;DHT22;29610;49.022;12.114;2023-02-02T14:54:26;1.00;99.90
18794;DHT22;29610;49.022;12.114;2023-02-02T14:57:02;1.00;99.90
18794;DHT22;29610;49.022;12.114;2023-02-02T14:59:47;0.90;99.90
18794;DHT22;29610;49.022;12.114;2023-02-02T15:02:19;0.90;99.90
18794;DHT22;29610;49.022;12.114;2023-02-02T15:04:50;0.90;99.90
18794;DHT22;29610;49.022;12.114;2023-02-02T15:07:37;1.20;99.90
18794;DHT22;29610;49.022;12.114;2023-02-02T15:13:54;1.00;99.90
18794;DHT22;29610;49.022;12.114;2023-02-02T15:16:35;1.00;99.90
18794;DHT22;29610;49.022;12.114;2023-02-02T15:19:19;1.00;99.90
18794;DHT22;29610;49.022;12.114;2023-02-02T15:21:56;1.00;99.90
18794;DHT22;29610;49.022;12.114;2023-02-02T15:24:31;1.00;99.90
18794;DHT22;29610;49.022;12.114;2023-02-02T15:27:03;1.00;99.90
18794;DHT22;29610;49.022;12.114;2023-02-02T15:29:41;1.10;99.90
18794;DHT22;29610;49.022;12.114;2023-02-02T15:32:15;1.10;99.90
18794;DHT22;29610;49.022;12.114;2023-02-02T15:34:49;1.10;99.90
18794;DHT22;29610;49.022;12.114;2023-02-02T15:37:23;1.10;99.90
18794;DHT22;29610;49.022;12.114;2023-02-02T15:40:00;1.10;99.90
18794;DHT22;29610;49.022;12.114;2023-02-02T15:42:35;1.00;99.90
18794;DHT22;29610;49.022;12.114;2023-02-02T15:45:34;1.10;99.90
18794;DHT22;29610;49.022;12.114;2023-02-02T15:48:19;1.00;99.90
18794;DHT22;29610;49.022;12.114;2023-02-02T15:50:50;1.00;99.90
18794;DHT22;29610;49.022;12.114;2023-02-02T15:53:24;1.00;99.90
18794;DHT22;29610;49.022;12.114;2023-02-02T15:55:55;1.00;99.90
18794;DHT22;29610;49.022;12.114;2023-02-02T15:58:27;1.00;99.90
18794;DHT22;29610;49.022;12.114;2023-02-02T16:01:02;1.00;99.90
18794;DHT22;29610;49.022;12.114;2023-02-02T16:03:40;1.10;99.90
18794;DHT22;29610;49.022;12.114;2023-02-02T16:06:14;0.90;99.90
18794;DHT22;29610;49.022;12.114;2023-02-02T16:08:44;1.00;99.90
18794;DHT22;29610;49.022;12.114;2023-02-02T16:11:15;1.00;99.90
18794;DHT22;29610;49.022;12.114;2023-02-02T16:13:57;1.00;99.90
18794;DHT22;29610;49.022;12.114;2023-02-02T16:16:31;1.00;99.90
18794;DHT22;29610;49.022;12.114;2023-02-02T16:19:03;1.00;99.90
18794;DHT22;29610;49.022;12.114;2023-02-02T16:21:43;1.00;99.90
18794;DHT22;29610;49.022;12.114;2023-02-02T16:24:19;1.00;99.90
18794;DHT22;29610;49.022;12.114;2023-02-02T16:26:52;1.00;99.90
18794;DHT22;29610;49.022;12.114;2023-02-02T16:29:24;1.00;99.90
18794;DHT22;29610;49.022;12.114;2023-02-02T16:31:56;1.00;99.90
18794;DHT22;29610;49.022;12.114;2023-02-02T16:34:44;1.00;99.90
18794;DHT22;29610;49.022;12.114;2023-02-02T16:37:15;1.00;99.90
18794;DHT22;29610;49.022;12.114;2023-02-02T16:39:49;1.00;99.90
18794;DHT22;29610;49.022;12.114;2023-02-02T16:42:26;1.00;99.90